Lifter — V2DD4 — position and weather

sailwx.info

Track history (hours):
 
Tides and Currents Weather Stations Pressure Air Temp Water Temp Dewpoint Dewpoint Depression Visibility Wind Speed Wind Dir Waves Ship Positions

Lifter

Last reported at 2018-Feb-24 17:01 UTC. Time now 2018-Feb-25 10:07 UTC.
Position N 48°50' W 005°49'.

Length 119 m; draft 6.4 m.

Type: Cargo ship. MMSI: 305175000.

Date/timePositionNaut miles runAvg speedWind from/ knotsBaromVisibWave heightAir tempDewpointWater temp
2018-Feb-24 17:01N 48°50' W 005°49'10913.0
2018-Feb-24 08:39N 49°48' W 003°28'213.6
2018-Feb-24 08:30N 49°49' W 003°25'713.8
2018-Feb-24 08:00N 49°52' W 003°16'714.2
2018-Feb-24 07:30N 49°56' W 003°06'714.3
2018-Feb-24 07:01N 49°59' W 002°56'814.4
2018-Feb-24 06:29N 50°02' W 002°45'714.4
2018-Feb-24 06:00N 50°04' W 002°35'2313.7
2018-Feb-24 04:21N 50°10' W 002°01'412.6
2018-Feb-24 04:00N 50°11' W 001°55'612.1
2018-Feb-24 03:30N 50°12' W 001°45'911.5
2018-Feb-24 02:45N 50°14' W 001°33'311.1
2018-Feb-24 02:29N 50°15' W 001°28'510.8
2018-Feb-24 02:00N 50°17' W 001°20'3611.5
2018-Feb-23 22:54N 50°27' W 000°26'513.2
2018-Feb-23 22:30N 50°28' W 000°19'713.6
2018-Feb-23 22:01N 50°30' W 000°08'713.8
2018-Feb-23 21:30N 50°32' E 000°02'714.1
2018-Feb-23 21:00N 50°34' E 000°13'714.2
2018-Feb-23 20:30N 50°36' E 000°24'714.2
2018-Feb-23 20:00N 50°38' E 000°34'713.8
2018-Feb-23 19:30N 50°43' E 000°42'713.6
2018-Feb-23 19:00N 50°47' E 000°51'713.1
2018-Feb-23 18:30N 50°50' E 000°60'612.7
2018-Feb-23 18:00N 50°54' E 001°08'611.9
2018-Feb-23 17:30N 50°58' E 001°15'611.1
2018-Feb-23 17:00N 51°02' E 001°22'611.3
2018-Feb-23 16:30N 51°05' E 001°29'611.8
2018-Feb-23 16:00N 51°09' E 001°36'612.2
2018-Feb-23 15:31N 51°13' E 001°44'612.9
2018-Feb-23 15:00N 51°18' E 001°50'713.6
2018-Feb-23 14:31N 51°24' E 001°55'714.5
2018-Feb-23 14:00N 51°30' E 002°02'815.1
2018-Feb-23 13:30N 51°36' E 002°09'815.0
2018-Feb-23 12:59N 51°42' E 002°17'714.7
2018-Feb-23 12:30N 51°47' E 002°25'1413.4
2018-Feb-23 11:28N 51°58' E 002°39'713.6
2018-Feb-23 10:59N 52°03' E 002°46'3012.7
2018-Feb-23 08:36N 52°28' E 003°14'112.2
2018-Feb-23 08:30N 52°29' E 003°16'612.0
2018-Feb-23 08:00N 52°33' E 003°22'611.9
2018-Feb-23 07:28N 52°38' E 003°28'611.9
2018-Feb-23 06:59N 52°42' E 003°35'612.2
2018-Feb-23 06:30N 52°47' E 003°42'612.6
2018-Feb-23 05:59N 52°51' E 003°50'713.2
2018-Feb-23 05:28N 52°56' E 003°58'713.6
2018-Feb-23 04:58N 53°00' E 004°07'814.0
2018-Feb-23 04:23N 53°05' E 004°17'514.2
2018-Feb-23 04:00N 53°09' E 004°24'714.1
2018-Feb-23 03:28N 53°16' E 004°29'714.0
2018-Feb-23 03:00N 53°22' E 004°33'713.4
2018-Feb-23 02:30N 53°28' E 004°38'13212.8
2018-Feb-22 16:11N 54°00' E 008°15'213.2
2018-Feb-22 16:00N 53°60' E 008°19'612.8
2018-Feb-22 15:30N 53°59' E 008°30'611.5
2018-Feb-22 15:00N 53°57' E 008°39'510.4
2018-Feb-22 14:30N 53°52' E 008°43'4 8.5
2018-Feb-22 14:00N 53°51' E 008°50'611.0
2018-Feb-22 13:30N 53°51' E 008°59'510.2
2018-Feb-22 13:00N 53°53' E 009°07'1 2.3
2018-Feb-22 12:30N 53°54' E 009°09'1 2.1
2018-Feb-22 12:00N 53°54' E 009°10'4 8.3
2018-Feb-22 11:30N 53°57' E 009°15'4 8.4
2018-Feb-22 11:00N 54°01' E 009°18'4 7.6
2018-Feb-22 10:30N 54°05' E 009°19'4 8.1
2018-Feb-22 10:00N 54°09' E 009°21'4 8.1
2018-Feb-22 09:30N 54°11' E 009°27'4 7.9
2018-Feb-22 09:00N 54°12' E 009°34'4 7.4
2018-Feb-22 08:30N 54°15' E 009°37'4 7.6
2018-Feb-22 08:00N 54°18' E 009°42'4 8.3
2018-Feb-22 07:30N 54°21' E 009°46'4 7.8
2018-Feb-22 06:59N 54°21' E 009°53'19 2.1
2018-Feb-21 22:02N 54°31' E 010°21'012.2
2018-Feb-21 22:00N 54°31' E 010°21'612.5
2018-Feb-21 21:30N 54°34' E 010°31'612.1
2018-Feb-21 21:01N 54°35' E 010°41'612.2
2018-Feb-21 20:31N 54°36' E 010°52'713.0
2018-Feb-21 20:00N 54°36' E 011°03'612.7
2018-Feb-21 19:30N 54°36' E 011°14'713.1
2018-Feb-21 19:01N 54°33' E 011°24'612.7
2018-Feb-21 18:30N 54°30' E 011°34'612.7
2018-Feb-21 18:00N 54°28' E 011°44'612.2
2018-Feb-21 17:30N 54°27' E 011°55'612.7
2018-Feb-21 17:00N 54°27' E 012°06'9112.1
2018-Feb-21 09:29N 55°16' E 014°19'612.8
2018-Feb-21 09:00N 55°20' E 014°26'612.9
2018-Feb-21 08:31N 55°25' E 014°34'612.2
2018-Feb-21 08:00N 55°28' E 014°43'612.8
2018-Feb-21 07:31N 55°30' E 014°54'612.3
2018-Feb-21 07:00N 55°32' E 015°04'612.2
2018-Feb-21 06:30N 55°34' E 015°14'612.2
2018-Feb-21 06:01N 55°35' E 015°25'612.1
2018-Feb-21 05:31N 55°37' E 015°35'612.1
2018-Feb-21 05:00N 55°39' E 015°45'612.2
2018-Feb-21 04:31N 55°41' E 015°55'612.3
2018-Feb-21 04:01N 55°43' E 016°06'612.2
2018-Feb-21 03:30N 55°44' E 016°16'612.1
2018-Feb-21 03:00N 55°46' E 016°27'612.1
2018-Feb-21 02:31N 55°48' E 016°37'612.1
2018-Feb-21 02:01N 55°50' E 016°47'  
2018-Feb-17 02:02N 54°51' E 019°10'1 6.4
2018-Feb-17 01:52N 54°50' E 019°09'2 6.2
2018-Feb-17 01:29N 54°48' E 019°07'3 6.7
2018-Feb-17 01:00N 54°45' E 019°04'4 7.2
2018-Feb-17 00:30N 54°42' E 019°01'4 8.4
2018-Feb-17 00:00N 54°39' E 018°57'5 9.1
2018-Feb-16 23:30N 54°35' E 018°53'4 8.9
2018-Feb-16 23:00N 54°31' E 018°48'4 8.9
2018-Feb-16 22:30N 54°32' E 018°40'2 4.9
2018-Feb-16 22:00N 54°32' E 018°36'0 0.7
2018-Feb-16 21:30N 54°32' E 018°36'0 0.7
2018-Feb-16 21:00N 54°31' E 018°36'1 2.9
2018-Feb-16 20:30N 54°32' E 018°33'1 1.5
2018-Feb-16 19:59N 54°32' E 018°32'0 0.0
2018-Feb-16 19:29N 54°32' E 018°32'0 0.0
2018-Feb-16 18:59N 54°32' E 018°32'0 0.0
2018-Feb-16 18:29N 54°32' E 018°32'0 0.0
2018-Feb-16 17:59N 54°32' E 018°32'0 0.0
2018-Feb-16 17:26N 54°32' E 018°32'0 0.0
2018-Feb-16 16:59N 54°32' E 018°32'0 0.0
2018-Feb-16 16:29N 54°32' E 018°32'0 0.0
2018-Feb-16 15:59N 54°32' E 018°32'0 0.0
2018-Feb-16 15:29N 54°32' E 018°32'0 0.0
2018-Feb-16 14:59N 54°32' E 018°32'0 0.0
2018-Feb-16 14:29N 54°32' E 018°32'0 0.0
2018-Feb-16 13:59N 54°32' E 018°32'0 0.0
2018-Feb-16 13:29N 54°32' E 018°32'0 0.0
2018-Feb-16 12:59N 54°32' E 018°32'0 0.0
2018-Feb-16 12:29N 54°32' E 018°32'0 0.0
2018-Feb-16 11:59N 54°32' E 018°32'0 0.0
2018-Feb-16 11:29N 54°32' E 018°32'0 0.0
2018-Feb-16 10:59N 54°32' E 018°32'0 0.0
2018-Feb-16 10:29N 54°32' E 018°32'0 0.0
2018-Feb-16 09:59N 54°32' E 018°32'0 0.0
2018-Feb-16 09:29N 54°32' E 018°32'0 0.0
2018-Feb-16 08:59N 54°32' E 018°32'0 0.0
2018-Feb-16 08:29N 54°32' E 018°32'0 0.0
2018-Feb-16 07:59N 54°32' E 018°32'0 0.0
2018-Feb-16 07:29N 54°32' E 018°32'0 0.0
2018-Feb-16 06:59N 54°32' E 018°32'0 0.0
2018-Feb-16 06:29N 54°32' E 018°32'0 0.0
2018-Feb-16 05:59N 54°32' E 018°32'0 0.0
2018-Feb-16 05:29N 54°32' E 018°32'0 0.0
2018-Feb-16 04:59N 54°32' E 018°32'0 0.0
2018-Feb-16 04:29N 54°32' E 018°32'0 0.0
2018-Feb-16 03:59N 54°32' E 018°32'0 0.0
2018-Feb-16 03:29N 54°32' E 018°32'0 0.0
2018-Feb-16 02:59N 54°32' E 018°32'0 0.0
2018-Feb-16 02:29N 54°32' E 018°32'0 0.0
2018-Feb-16 01:59N 54°32' E 018°32'0 0.0
2018-Feb-16 01:29N 54°32' E 018°32'0 0.0
2018-Feb-16 00:59N 54°32' E 018°32'0 0.0
2018-Feb-16 00:29N 54°32' E 018°32'0 0.0
2018-Feb-15 23:59N 54°32' E 018°32'0 0.0
2018-Feb-15 23:29N 54°32' E 018°32'0 0.0
2018-Feb-15 22:59N 54°32' E 018°32'0 0.0
2018-Feb-15 22:29N 54°32' E 018°32'0 0.0
2018-Feb-15 21:56N 54°32' E 018°32'0 0.0
2018-Feb-15 21:29N 54°32' E 018°32'0 0.0
2018-Feb-15 20:59N 54°32' E 018°32'0 0.0
2018-Feb-15 20:29N 54°32' E 018°32'0 0.0
2018-Feb-15 19:59N 54°32' E 018°32'0 0.0
2018-Feb-15 19:29N 54°32' E 018°32'0 0.0
2018-Feb-15 18:59N 54°32' E 018°32'0 0.0
2018-Feb-15 18:29N 54°32' E 018°32'0 0.0
2018-Feb-15 17:56N 54°32' E 018°32'0 0.0
2018-Feb-15 17:29N 54°32' E 018°32'0 0.0
2018-Feb-15 16:59N 54°32' E 018°32'0 0.0
2018-Feb-15 16:29N 54°32' E 018°32'0 0.0
2018-Feb-15 15:59N 54°32' E 018°32'0 0.0
2018-Feb-15 15:29N 54°32' E 018°32'0 0.0
2018-Feb-15 14:59N 54°32' E 018°32'0 0.0
2018-Feb-15 14:29N 54°32' E 018°32'0 0.0
2018-Feb-15 13:59N 54°32' E 018°32'0 0.0
2018-Feb-15 13:29N 54°32' E 018°32'0 0.0
2018-Feb-15 12:59N 54°32' E 018°32'0 0.0
2018-Feb-15 12:29N 54°32' E 018°32'0 0.0
2018-Feb-15 11:59N 54°32' E 018°32'0 0.0
2018-Feb-15 11:29N 54°32' E 018°32'0 0.0
2018-Feb-15 10:59N 54°32' E 018°32'0 0.0
2018-Feb-15 10:29N 54°32' E 018°32'0 0.0
2018-Feb-15 09:59N 54°32' E 018°32'0 0.0
2018-Feb-15 09:29N 54°32' E 018°32'0 0.0
2018-Feb-15 08:59N 54°32' E 018°32'0 0.0
2018-Feb-15 08:29N 54°32' E 018°32'0 0.0
2018-Feb-15 07:59N 54°32' E 018°32'0 0.0
2018-Feb-15 07:29N 54°32' E 018°32'0 0.0
2018-Feb-15 06:59N 54°32' E 018°32'0 0.0
2018-Feb-15 06:29N 54°32' E 018°32'0 0.0
2018-Feb-15 05:59N 54°32' E 018°32'0 0.0
2018-Feb-15 05:29N 54°32' E 018°32'0 0.0
2018-Feb-15 04:59N 54°32' E 018°32'0 0.0
2018-Feb-15 04:29N 54°32' E 018°32'0 0.0
2018-Feb-15 03:59N 54°32' E 018°32'0 0.0
2018-Feb-15 03:29N 54°32' E 018°32'0 0.0
2018-Feb-15 02:59N 54°32' E 018°32'0 0.0
2018-Feb-15 02:29N 54°32' E 018°32'0 0.0
2018-Feb-15 01:56N 54°32' E 018°32'0 0.0
2018-Feb-15 01:29N 54°32' E 018°32'0 0.0
2018-Feb-15 00:59N 54°32' E 018°32'0 0.0
2018-Feb-15 00:29N 54°32' E 018°32'0 0.0
2018-Feb-14 23:59N 54°32' E 018°32'0 0.0
2018-Feb-14 23:29N 54°32' E 018°32'0 0.0
2018-Feb-14 22:59N 54°32' E 018°32'0 0.0
2018-Feb-14 22:29N 54°32' E 018°32'0 0.0
2018-Feb-14 21:59N 54°32' E 018°32'0 0.0
2018-Feb-14 21:29N 54°32' E 018°32'0 0.0
2018-Feb-14 20:59N 54°32' E 018°32'0 0.0
2018-Feb-14 20:29N 54°32' E 018°32'0 0.0
2018-Feb-14 19:59N 54°32' E 018°32'0 0.0
2018-Feb-14 19:29N 54°32' E 018°32'0 0.0
2018-Feb-14 18:59N 54°32' E 018°32'0 0.0
2018-Feb-14 18:29N 54°32' E 018°32'0 0.0
2018-Feb-14 17:59N 54°32' E 018°32'0 0.0
2018-Feb-14 17:29N 54°32' E 018°32'  
Track history (hours):
 
Tides and Currents Weather Stations Pressure Air Temp Water Temp Dewpoint Dewpoint Depression Visibility Wind Speed Wind Dir Waves Ship Positions

Lifter

Last reported at 2018-Feb-24 17:01 UTC. Time now 2018-Feb-25 10:07 UTC.
Position N 48°50' W 005°49'.

Length 119 m; draft 6.4 m.

Type: Cargo ship. MMSI: 305175000.

Date/timePositionNaut miles runAvg speedWind from/ knotsBaromVisibWave heightAir tempDewpointWater temp
2018-Feb-24 17:01N 48°50' W 005°49'10913.0
2018-Feb-24 08:39N 49°48' W 003°28'213.6
2018-Feb-24 08:30N 49°49' W 003°25'713.8
2018-Feb-24 08:00N 49°52' W 003°16'714.2
2018-Feb-24 07:30N 49°56' W 003°06'714.3
2018-Feb-24 07:01N 49°59' W 002°56'814.4
2018-Feb-24 06:29N 50°02' W 002°45'714.4
2018-Feb-24 06:00N 50°04' W 002°35'2313.7
2018-Feb-24 04:21N 50°10' W 002°01'412.6
2018-Feb-24 04:00N 50°11' W 001°55'612.1
2018-Feb-24 03:30N 50°12' W 001°45'911.5
2018-Feb-24 02:45N 50°14' W 001°33'311.1
2018-Feb-24 02:29N 50°15' W 001°28'510.8
2018-Feb-24 02:00N 50°17' W 001°20'3611.5
2018-Feb-23 22:54N 50°27' W 000°26'513.2
2018-Feb-23 22:30N 50°28' W 000°19'713.6
2018-Feb-23 22:01N 50°30' W 000°08'713.8
2018-Feb-23 21:30N 50°32' E 000°02'714.1
2018-Feb-23 21:00N 50°34' E 000°13'714.2
2018-Feb-23 20:30N 50°36' E 000°24'714.2
2018-Feb-23 20:00N 50°38' E 000°34'713.8
2018-Feb-23 19:30N 50°43' E 000°42'713.6
2018-Feb-23 19:00N 50°47' E 000°51'713.1
2018-Feb-23 18:30N 50°50' E 000°60'612.7
2018-Feb-23 18:00N 50°54' E 001°08'611.9
2018-Feb-23 17:30N 50°58' E 001°15'611.1
2018-Feb-23 17:00N 51°02' E 001°22'611.3
2018-Feb-23 16:30N 51°05' E 001°29'611.8
2018-Feb-23 16:00N 51°09' E 001°36'612.2
2018-Feb-23 15:31N 51°13' E 001°44'612.9
2018-Feb-23 15:00N 51°18' E 001°50'713.6
2018-Feb-23 14:31N 51°24' E 001°55'714.5
2018-Feb-23 14:00N 51°30' E 002°02'815.1
2018-Feb-23 13:30N 51°36' E 002°09'815.0
2018-Feb-23 12:59N 51°42' E 002°17'714.7
2018-Feb-23 12:30N 51°47' E 002°25'1413.4
2018-Feb-23 11:28N 51°58' E 002°39'713.6
2018-Feb-23 10:59N 52°03' E 002°46'3012.7
2018-Feb-23 08:36N 52°28' E 003°14'112.2
2018-Feb-23 08:30N 52°29' E 003°16'612.0
2018-Feb-23 08:00N 52°33' E 003°22'611.9
2018-Feb-23 07:28N 52°38' E 003°28'611.9
2018-Feb-23 06:59N 52°42' E 003°35'612.2
2018-Feb-23 06:30N 52°47' E 003°42'612.6
2018-Feb-23 05:59N 52°51' E 003°50'713.2
2018-Feb-23 05:28N 52°56' E 003°58'713.6
2018-Feb-23 04:58N 53°00' E 004°07'814.0
2018-Feb-23 04:23N 53°05' E 004°17'514.2
2018-Feb-23 04:00N 53°09' E 004°24'714.1
2018-Feb-23 03:28N 53°16' E 004°29'714.0
2018-Feb-23 03:00N 53°22' E 004°33'713.4
2018-Feb-23 02:30N 53°28' E 004°38'13212.8
2018-Feb-22 16:11N 54°00' E 008°15'213.2
2018-Feb-22 16:00N 53°60' E 008°19'612.8
2018-Feb-22 15:30N 53°59' E 008°30'611.5
2018-Feb-22 15:00N 53°57' E 008°39'510.4
2018-Feb-22 14:30N 53°52' E 008°43'4 8.5
2018-Feb-22 14:00N 53°51' E 008°50'611.0
2018-Feb-22 13:30N 53°51' E 008°59'510.2
2018-Feb-22 13:00N 53°53' E 009°07'1 2.3
2018-Feb-22 12:30N 53°54' E 009°09'1 2.1
2018-Feb-22 12:00N 53°54' E 009°10'4 8.3
2018-Feb-22 11:30N 53°57' E 009°15'4 8.4
2018-Feb-22 11:00N 54°01' E 009°18'4 7.6
2018-Feb-22 10:30N 54°05' E 009°19'4 8.1
2018-Feb-22 10:00N 54°09' E 009°21'4 8.1
2018-Feb-22 09:30N 54°11' E 009°27'4 7.9
2018-Feb-22 09:00N 54°12' E 009°34'4 7.4
2018-Feb-22 08:30N 54°15' E 009°37'4 7.6
2018-Feb-22 08:00N 54°18' E 009°42'4 8.3
2018-Feb-22 07:30N 54°21' E 009°46'4 7.8
2018-Feb-22 06:59N 54°21' E 009°53'19 2.1
2018-Feb-21 22:02N 54°31' E 010°21'012.2
2018-Feb-21 22:00N 54°31' E 010°21'612.5
2018-Feb-21 21:30N 54°34' E 010°31'612.1
2018-Feb-21 21:01N 54°35' E 010°41'612.2
2018-Feb-21 20:31N 54°36' E 010°52'713.0
2018-Feb-21 20:00N 54°36' E 011°03'612.7
2018-Feb-21 19:30N 54°36' E 011°14'713.1
2018-Feb-21 19:01N 54°33' E 011°24'612.7
2018-Feb-21 18:30N 54°30' E 011°34'612.7
2018-Feb-21 18:00N 54°28' E 011°44'612.2
2018-Feb-21 17:30N 54°27' E 011°55'612.7
2018-Feb-21 17:00N 54°27' E 012°06'9112.1
2018-Feb-21 09:29N 55°16' E 014°19'612.8
2018-Feb-21 09:00N 55°20' E 014°26'612.9
2018-Feb-21 08:31N 55°25' E 014°34'612.2
2018-Feb-21 08:00N 55°28' E 014°43'612.8
2018-Feb-21 07:31N 55°30' E 014°54'612.3
2018-Feb-21 07:00N 55°32' E 015°04'612.2
2018-Feb-21 06:30N 55°34' E 015°14'612.2
2018-Feb-21 06:01N 55°35' E 015°25'612.1
2018-Feb-21 05:31N 55°37' E 015°35'612.1
2018-Feb-21 05:00N 55°39' E 015°45'612.2
2018-Feb-21 04:31N 55°41' E 015°55'612.3
2018-Feb-21 04:01N 55°43' E 016°06'612.2
2018-Feb-21 03:30N 55°44' E 016°16'612.1
2018-Feb-21 03:00N 55°46' E 016°27'612.1
2018-Feb-21 02:31N 55°48' E 016°37'612.1
2018-Feb-21 02:01N 55°50' E 016°47'  
2018-Feb-17 02:02N 54°51' E 019°10'1 6.4
2018-Feb-17 01:52N 54°50' E 019°09'2 6.2
2018-Feb-17 01:29N 54°48' E 019°07'3 6.7
2018-Feb-17 01:00N 54°45' E 019°04'4 7.2
2018-Feb-17 00:30N 54°42' E 019°01'4 8.4
2018-Feb-17 00:00N 54°39' E 018°57'5 9.1
2018-Feb-16 23:30N 54°35' E 018°53'4 8.9
2018-Feb-16 23:00N 54°31' E 018°48'4 8.9
2018-Feb-16 22:30N 54°32' E 018°40'2 4.9
2018-Feb-16 22:00N 54°32' E 018°36'0 0.7
2018-Feb-16 21:30N 54°32' E 018°36'0 0.7
2018-Feb-16 21:00N 54°31' E 018°36'1 2.9
2018-Feb-16 20:30N 54°32' E 018°33'1 1.5
2018-Feb-16 19:59N 54°32' E 018°32'0 0.0
2018-Feb-16 19:29N 54°32' E 018°32'0 0.0
2018-Feb-16 18:59N 54°32' E 018°32'0 0.0
2018-Feb-16 18:29N 54°32' E 018°32'0 0.0
2018-Feb-16 17:59N 54°32' E 018°32'0 0.0
2018-Feb-16 17:26N 54°32' E 018°32'0 0.0
2018-Feb-16 16:59N 54°32' E 018°32'0 0.0
2018-Feb-16 16:29N 54°32' E 018°32'0 0.0
2018-Feb-16 15:59N 54°32' E 018°32'0 0.0
2018-Feb-16 15:29N 54°32' E 018°32'0 0.0
2018-Feb-16 14:59N 54°32' E 018°32'0 0.0
2018-Feb-16 14:29N 54°32' E 018°32'0 0.0
2018-Feb-16 13:59N 54°32' E 018°32'0 0.0
2018-Feb-16 13:29N 54°32' E 018°32'0 0.0
2018-Feb-16 12:59N 54°32' E 018°32'0 0.0
2018-Feb-16 12:29N 54°32' E 018°32'0 0.0
2018-Feb-16 11:59N 54°32' E 018°32'0 0.0
2018-Feb-16 11:29N 54°32' E 018°32'0 0.0
2018-Feb-16 10:59N 54°32' E 018°32'0 0.0
2018-Feb-16 10:29N 54°32' E 018°32'0 0.0
2018-Feb-16 09:59N 54°32' E 018°32'0 0.0
2018-Feb-16 09:29N 54°32' E 018°32'0 0.0
2018-Feb-16 08:59N 54°32' E 018°32'0 0.0
2018-Feb-16 08:29N 54°32' E 018°32'0 0.0
2018-Feb-16 07:59N 54°32' E 018°32'0 0.0
2018-Feb-16 07:29N 54°32' E 018°32'0 0.0
2018-Feb-16 06:59N 54°32' E 018°32'0 0.0
2018-Feb-16 06:29N 54°32' E 018°32'0 0.0
2018-Feb-16 05:59N 54°32' E 018°32'0 0.0
2018-Feb-16 05:29N 54°32' E 018°32'0 0.0
2018-Feb-16 04:59N 54°32' E 018°32'0 0.0
2018-Feb-16 04:29N 54°32' E 018°32'0 0.0
2018-Feb-16 03:59N 54°32' E 018°32'0 0.0
2018-Feb-16 03:29N 54°32' E 018°32'0 0.0
2018-Feb-16 02:59N 54°32' E 018°32'0 0.0
2018-Feb-16 02:29N 54°32' E 018°32'0 0.0
2018-Feb-16 01:59N 54°32' E 018°32'0 0.0
2018-Feb-16 01:29N 54°32' E 018°32'0 0.0
2018-Feb-16 00:59N 54°32' E 018°32'0 0.0
2018-Feb-16 00:29N 54°32' E 018°32'0 0.0
2018-Feb-15 23:59N 54°32' E 018°32'0 0.0
2018-Feb-15 23:29N 54°32' E 018°32'0 0.0
2018-Feb-15 22:59N 54°32' E 018°32'0 0.0
2018-Feb-15 22:29N 54°32' E 018°32'0 0.0
2018-Feb-15 21:56N 54°32' E 018°32'0 0.0
2018-Feb-15 21:29N 54°32' E 018°32'0 0.0
2018-Feb-15 20:59N 54°32' E 018°32'0 0.0
2018-Feb-15 20:29N 54°32' E 018°32'0 0.0
2018-Feb-15 19:59N 54°32' E 018°32'0 0.0
2018-Feb-15 19:29N 54°32' E 018°32'0 0.0
2018-Feb-15 18:59N 54°32' E 018°32'0 0.0
2018-Feb-15 18:29N 54°32' E 018°32'0 0.0
2018-Feb-15 17:56N 54°32' E 018°32'0 0.0
2018-Feb-15 17:29N 54°32' E 018°32'0 0.0
2018-Feb-15 16:59N 54°32' E 018°32'0 0.0
2018-Feb-15 16:29N 54°32' E 018°32'0 0.0
2018-Feb-15 15:59N 54°32' E 018°32'0 0.0
2018-Feb-15 15:29N 54°32' E 018°32'0 0.0
2018-Feb-15 14:59N 54°32' E 018°32'0 0.0
2018-Feb-15 14:29N 54°32' E 018°32'0 0.0
2018-Feb-15 13:59N 54°32' E 018°32'0 0.0
2018-Feb-15 13:29N 54°32' E 018°32'0 0.0
2018-Feb-15 12:59N 54°32' E 018°32'0 0.0
2018-Feb-15 12:29N 54°32' E 018°32'0 0.0
2018-Feb-15 11:59N 54°32' E 018°32'0 0.0
2018-Feb-15 11:29N 54°32' E 018°32'0 0.0
2018-Feb-15 10:59N 54°32' E 018°32'0 0.0
2018-Feb-15 10:29N 54°32' E 018°32'0 0.0
2018-Feb-15 09:59N 54°32' E 018°32'0 0.0
2018-Feb-15 09:29N 54°32' E 018°32'0 0.0
2018-Feb-15 08:59N 54°32' E 018°32'0 0.0
2018-Feb-15 08:29N 54°32' E 018°32'0 0.0
2018-Feb-15 07:59N 54°32' E 018°32'0 0.0
2018-Feb-15 07:29N 54°32' E 018°32'0 0.0
2018-Feb-15 06:59N 54°32' E 018°32'0 0.0
2018-Feb-15 06:29N 54°32' E 018°32'0 0.0
2018-Feb-15 05:59N 54°32' E 018°32'0 0.0
2018-Feb-15 05:29N 54°32' E 018°32'0 0.0
2018-Feb-15 04:59N 54°32' E 018°32'0 0.0
2018-Feb-15 04:29N 54°32' E 018°32'0 0.0
2018-Feb-15 03:59N 54°32' E 018°32'0 0.0
2018-Feb-15 03:29N 54°32' E 018°32'0 0.0
2018-Feb-15 02:59N 54°32' E 018°32'0 0.0
2018-Feb-15 02:29N 54°32' E 018°32'0 0.0
2018-Feb-15 01:56N 54°32' E 018°32'0 0.0
2018-Feb-15 01:29N 54°32' E 018°32'0 0.0
2018-Feb-15 00:59N 54°32' E 018°32'0 0.0
2018-Feb-15 00:29N 54°32' E 018°32'0 0.0
2018-Feb-14 23:59N 54°32' E 018°32'0 0.0
2018-Feb-14 23:29N 54°32' E 018°32'0 0.0
2018-Feb-14 22:59N 54°32' E 018°32'0 0.0
2018-Feb-14 22:29N 54°32' E 018°32'0 0.0
2018-Feb-14 21:59N 54°32' E 018°32'0 0.0
2018-Feb-14 21:29N 54°32' E 018°32'0 0.0
2018-Feb-14 20:59N 54°32' E 018°32'0 0.0
2018-Feb-14 20:29N 54°32' E 018°32'0 0.0
2018-Feb-14 19:59N 54°32' E 018°32'0 0.0
2018-Feb-14 19:29N 54°32' E 018°32'0 0.0
2018-Feb-14 18:59N 54°32' E 018°32'0 0.0
2018-Feb-14 18:29N 54°32' E 018°32'0 0.0
2018-Feb-14 17:59N 54°32' E 018°32'0 0.0
2018-Feb-14 17:29N 54°32' E 018°32'  

Dump ship's entire track history